createdAt,value
2017-07-17T00:01:07.996Z,23.74
2017-07-17T00:03:35.942Z,23.75
2017-07-17T00:06:03.875Z,23.73
2017-07-17T00:08:31.800Z,23.72
2017-07-17T00:10:59.727Z,23.72
2017-07-17T00:13:27.640Z,23.72
2017-07-17T00:15:55.579Z,23.72
2017-07-17T00:18:23.514Z,23.73
2017-07-17T00:20:51.443Z,23.71
2017-07-17T00:23:19.373Z,23.69
2017-07-17T00:25:47.305Z,23.69
2017-07-17T00:28:15.251Z,23.68
2017-07-17T00:30:43.178Z,23.67
2017-07-17T00:33:11.095Z,23.67
2017-07-17T00:35:39.025Z,23.65
2017-07-17T00:38:06.975Z,23.64
2017-07-17T00:40:34.918Z,23.63
2017-07-17T00:43:02.853Z,23.63
2017-07-17T00:45:30.815Z,23.62
2017-07-17T00:47:58.718Z,23.62
2017-07-17T00:50:26.669Z,23.61
2017-07-17T00:52:54.633Z,23.60
2017-07-17T00:55:22.548Z,23.61
2017-07-17T00:57:50.488Z,23.60
2017-07-17T01:00:18.418Z,23.61
2017-07-17T01:02:46.350Z,23.59
2017-07-17T01:05:14.285Z,23.60
2017-07-17T01:07:42.217Z,23.60
2017-07-17T01:10:10.170Z,23.59
2017-07-17T01:12:38.098Z,23.58
2017-07-17T01:15:06.057Z,23.59
2017-07-17T01:17:34.014Z,23.59
2017-07-17T01:20:01.942Z,23.58
2017-07-17T01:22:29.870Z,23.58
2017-07-17T01:24:57.791Z,23.58
2017-07-17T01:27:25.709Z,23.58
2017-07-17T01:29:53.653Z,23.58
2017-07-17T01:32:21.601Z,23.58
2017-07-17T01:34:49.529Z,23.58
2017-07-17T01:37:17.490Z,23.58
2017-07-17T01:39:45.431Z,23.56
2017-07-17T01:42:13.363Z,23.56
2017-07-17T01:44:41.325Z,23.56
2017-07-17T01:47:09.266Z,23.56
2017-07-17T01:49:37.225Z,23.55
2017-07-17T01:52:05.153Z,23.55
2017-07-17T01:54:33.080Z,23.55
2017-07-17T01:57:01.004Z,23.55
2017-07-17T01:59:28.929Z,23.54
2017-07-17T02:01:56.865Z,23.52
2017-07-17T02:04:24.787Z,23.53
2017-07-17T02:06:52.703Z,23.52
2017-07-17T02:09:20.634Z,23.51
2017-07-17T02:11:48.541Z,23.51
2017-07-17T02:14:16.515Z,23.51
2017-07-17T02:16:44.440Z,23.51
2017-07-17T02:19:12.383Z,23.50
2017-07-17T02:21:40.307Z,23.51
2017-07-17T02:24:08.254Z,23.51
2017-07-17T02:26:36.215Z,23.50
2017-07-17T02:29:04.149Z,23.50
2017-07-17T02:31:32.068Z,23.50
2017-07-17T02:33:59.993Z,23.48
2017-07-17T02:36:27.918Z,23.48
2017-07-17T02:38:55.873Z,23.47
2017-07-17T02:41:23.786Z,23.48
2017-07-17T02:43:51.713Z,23.48
2017-07-17T02:46:19.649Z,23.47
2017-07-17T02:48:47.564Z,23.48
2017-07-17T02:51:15.503Z,23.46
2017-07-17T02:53:43.432Z,23.46
2017-07-17T02:56:11.353Z,23.47
2017-07-17T02:58:39.268Z,23.46
2017-07-17T03:01:07.190Z,23.47
2017-07-17T03:03:35.126Z,23.47
2017-07-17T03:06:03.046Z,23.46
2017-07-17T03:08:30.961Z,23.46
2017-07-17T03:10:58.886Z,23.47
2017-07-17T03:13:26.811Z,23.46
2017-07-17T03:15:54.752Z,23.46
2017-07-17T03:18:22.667Z,23.45
2017-07-17T03:20:50.605Z,23.45
2017-07-17T03:23:18.580Z,23.45
2017-07-17T03:25:46.510Z,23.46
2017-07-17T03:28:14.487Z,23.45
2017-07-17T03:30:42.401Z,23.46
2017-07-17T03:33:10.333Z,23.46
2017-07-17T03:35:38.249Z,23.46
2017-07-17T03:38:06.182Z,23.46
2017-07-17T03:40:34.138Z,23.45
2017-07-17T03:43:02.069Z,23.45
2017-07-17T03:45:29.993Z,23.44
2017-07-17T03:47:57.918Z,23.45
2017-07-17T03:50:26.630Z,23.46
2017-07-17T03:52:54.575Z,23.45
2017-07-17T03:55:22.498Z,23.44
2017-07-17T03:57:50.409Z,23.43
2017-07-17T04:00:18.325Z,23.42
2017-07-17T04:02:46.251Z,23.44
2017-07-17T04:05:14.229Z,23.43
2017-07-17T04:07:42.144Z,23.43
2017-07-17T04:10:10.063Z,23.42
2017-07-17T04:12:37.985Z,23.43
2017-07-17T04:15:05.933Z,23.41
2017-07-17T04:17:33.878Z,23.41
2017-07-17T04:20:01.831Z,23.41
2017-07-17T04:22:29.737Z,23.40
2017-07-17T04:24:57.654Z,23.40
2017-07-17T04:27:25.590Z,23.42
2017-07-17T04:29:53.518Z,23.40
2017-07-17T04:32:21.445Z,23.40
2017-07-17T04:34:49.361Z,23.39
2017-07-17T04:37:17.313Z,23.38
2017-07-17T04:39:45.234Z,23.38
2017-07-17T04:42:13.162Z,23.38
2017-07-17T04:44:41.086Z,23.39
2017-07-17T04:47:09.049Z,23.38
2017-07-17T04:49:37.024Z,23.37
2017-07-17T04:52:04.977Z,23.38
2017-07-17T04:54:32.915Z,23.38
2017-07-17T04:57:00.844Z,23.38
2017-07-17T04:59:28.783Z,23.37
2017-07-17T05:01:56.727Z,23.37
2017-07-17T05:04:24.661Z,23.38
2017-07-17T05:06:52.590Z,23.37
2017-07-17T05:09:20.524Z,23.37
2017-07-17T05:11:48.451Z,23.37
2017-07-17T05:14:16.402Z,23.37
2017-07-17T05:16:44.334Z,23.37
2017-07-17T05:19:12.777Z,23.37
2017-07-17T05:21:40.700Z,23.37
2017-07-17T05:24:08.628Z,23.38
2017-07-17T05:26:36.671Z,23.37
2017-07-17T05:29:04.602Z,23.37
2017-07-17T05:31:32.559Z,23.36
2017-07-17T05:34:00.504Z,23.36
2017-07-17T05:36:28.463Z,23.37
2017-07-17T05:38:56.433Z,23.38
2017-07-17T05:41:24.382Z,23.37
2017-07-17T05:43:52.298Z,23.38
2017-07-17T05:46:20.234Z,23.38
2017-07-17T05:48:48.166Z,23.31
2017-07-17T05:51:16.109Z,23.34
2017-07-17T05:53:44.052Z,23.31
2017-07-17T05:56:11.998Z,23.30
2017-07-17T05:58:39.954Z,23.28
2017-07-17T06:01:07.894Z,23.18
2017-07-17T06:03:35.840Z,23.22
2017-07-17T06:06:03.764Z,23.22
2017-07-17T06:08:31.692Z,23.17
2017-07-17T06:10:59.624Z,23.14
2017-07-17T06:13:27.543Z,23.10
2017-07-17T06:15:55.503Z,23.10
2017-07-17T06:18:23.434Z,22.99
2017-07-17T06:20:51.373Z,23.04
2017-07-17T06:23:19.289Z,23.03
2017-07-17T06:25:47.211Z,23.01
2017-07-17T06:28:15.175Z,23.01
2017-07-17T06:30:43.107Z,23.00
2017-07-17T06:33:11.051Z,22.60
2017-07-17T06:35:39.002Z,22.58
2017-07-17T06:38:06.947Z,22.42
2017-07-17T06:40:34.891Z,22.64
2017-07-17T06:43:02.883Z,22.78
2017-07-17T06:45:30.817Z,22.90
2017-07-17T06:47:58.739Z,23.00
2017-07-17T06:50:26.673Z,23.04
2017-07-17T06:52:54.626Z,23.09
2017-07-17T06:55:22.554Z,23.12
2017-07-17T06:57:50.477Z,23.15
2017-07-17T07:00:18.430Z,23.17
2017-07-17T07:02:46.365Z,23.19
2017-07-17T07:05:14.401Z,23.21
2017-07-17T07:07:42.331Z,23.23
2017-07-17T07:10:10.267Z,23.24
2017-07-17T07:12:38.193Z,23.27
2017-07-17T07:15:06.134Z,23.29
2017-07-17T07:17:34.082Z,23.30
2017-07-17T07:20:01.994Z,23.31
2017-07-17T07:22:29.929Z,23.33
2017-07-17T07:24:57.854Z,23.34
2017-07-17T07:27:25.794Z,23.36
2017-07-17T07:29:53.752Z,23.37
2017-07-17T07:32:21.688Z,23.41
2017-07-17T07:34:49.618Z,23.42
2017-07-17T07:37:17.593Z,23.43
2017-07-17T07:39:45.559Z,23.45
2017-07-17T07:42:13.510Z,23.45
2017-07-17T07:44:41.438Z,23.47
2017-07-17T07:47:09.378Z,23.49
2017-07-17T07:49:37.314Z,23.50
2017-07-17T07:52:05.465Z,23.51
2017-07-17T07:54:33.596Z,23.51
2017-07-17T07:57:01.534Z,23.52
2017-07-17T07:59:29.680Z,23.54
2017-07-17T08:01:57.861Z,23.54
2017-07-17T08:04:26.031Z,23.55
2017-07-17T08:06:54.201Z,23.57
2017-07-17T08:09:22.310Z,23.58
2017-07-17T08:11:50.460Z,23.59
2017-07-17T08:14:18.438Z,23.60
2017-07-17T08:16:46.530Z,23.60
2017-07-17T08:19:14.686Z,23.62
2017-07-17T08:21:42.618Z,23.62
2017-07-17T08:24:10.562Z,23.63
2017-07-17T08:26:38.521Z,23.65
2017-07-17T08:29:06.451Z,23.66
2017-07-17T08:31:34.395Z,23.66
2017-07-17T08:34:02.348Z,23.67
2017-07-17T08:36:30.303Z,23.68
2017-07-17T08:38:58.293Z,23.69
2017-07-17T08:41:26.240Z,23.69
2017-07-17T08:43:54.191Z,23.71
2017-07-17T08:46:22.129Z,23.72
2017-07-17T08:48:50.092Z,23.72
2017-07-17T08:51:18.066Z,23.73
2017-07-17T08:53:46.207Z,23.73
2017-07-17T08:56:14.141Z,23.75
2017-07-17T08:58:42.075Z,23.76
2017-07-17T09:01:09.998Z,23.78
2017-07-17T09:03:37.973Z,23.78
2017-07-17T09:06:05.899Z,23.79
2017-07-17T09:08:33.884Z,23.78
2017-07-17T09:11:01.831Z,23.80
2017-07-17T09:13:29.787Z,23.81
2017-07-17T09:15:57.747Z,23.82
2017-07-17T09:18:25.722Z,23.82
2017-07-17T09:20:53.660Z,23.83
2017-07-17T09:23:21.613Z,23.84
2017-07-17T09:25:49.564Z,23.84
2017-07-17T09:28:17.514Z,23.84
2017-07-17T09:30:45.445Z,23.87
2017-07-17T09:33:13.387Z,23.86
2017-07-17T09:35:41.310Z,23.87
2017-07-17T09:38:09.269Z,23.88
2017-07-17T09:40:37.321Z,23.88
2017-07-17T09:43:05.402Z,23.89
2017-07-17T09:45:33.758Z,23.90
2017-07-17T09:48:01.886Z,23.90
2017-07-17T09:50:29.821Z,23.91
2017-07-17T09:52:58.022Z,23.91
2017-07-17T09:55:25.984Z,23.91
2017-07-17T09:57:54.125Z,23.91
2017-07-17T10:00:22.097Z,23.93
2017-07-17T10:02:50.082Z,23.93
2017-07-17T10:05:18.062Z,23.93
2017-07-17T10:07:46.017Z,23.94
2017-07-17T10:10:13.976Z,23.94
2017-07-17T10:12:42.329Z,23.95
2017-07-17T10:15:10.542Z,23.95
2017-07-17T10:17:38.517Z,23.95
2017-07-17T10:20:06.475Z,23.95
2017-07-17T10:22:34.435Z,23.95
2017-07-17T10:25:02.383Z,23.95
2017-07-17T10:27:30.313Z,23.96
2017-07-17T10:29:58.283Z,23.96
2017-07-17T10:32:26.228Z,23.97
2017-07-17T10:34:54.212Z,23.96
2017-07-17T10:37:22.146Z,23.96
2017-07-17T10:39:50.146Z,23.96
2017-07-17T10:42:18.117Z,23.98
2017-07-17T10:44:46.043Z,23.97
2017-07-17T10:47:14.236Z,24.01
2017-07-17T10:49:42.171Z,24.02
2017-07-17T10:52:10.113Z,24.04
2017-07-17T10:54:38.101Z,24.06
2017-07-17T10:57:06.052Z,24.07
2017-07-17T10:59:34.011Z,24.08
2017-07-17T11:02:01.965Z,24.09
2017-07-17T11:04:29.907Z,24.11
2017-07-17T11:06:57.905Z,24.12
2017-07-17T11:09:25.850Z,24.15
2017-07-17T11:11:53.795Z,24.14
2017-07-17T11:14:21.723Z,24.14
2017-07-17T11:16:49.655Z,24.15
2017-07-17T11:19:17.670Z,24.15
2017-07-17T11:21:45.588Z,24.19
2017-07-17T11:24:13.511Z,24.21
2017-07-17T11:26:41.469Z,24.20
2017-07-17T11:29:09.403Z,24.22
2017-07-17T11:31:37.363Z,24.23
2017-07-17T11:34:05.302Z,24.23
2017-07-17T11:36:33.246Z,24.20
2017-07-17T11:39:01.178Z,24.21
2017-07-17T11:41:29.106Z,24.24
2017-07-17T11:43:57.080Z,24.25
2017-07-17T11:56:39.320Z,24.29
2017-07-17T11:59:07.354Z,24.31
2017-07-17T12:01:35.312Z,24.32
2017-07-17T12:04:03.256Z,24.33
2017-07-17T12:06:31.187Z,24.33
2017-07-17T12:08:59.128Z,24.34
2017-07-17T12:11:27.083Z,24.35
2017-07-17T12:13:55.083Z,24.38
2017-07-17T12:16:23.031Z,24.36
2017-07-17T12:18:51.011Z,24.38
2017-07-17T12:21:18.943Z,24.40
2017-07-17T12:23:46.946Z,24.42
2017-07-17T12:26:14.917Z,24.41
2017-07-17T12:28:42.850Z,24.41
2017-07-17T12:31:10.799Z,24.44
2017-07-17T12:33:39.007Z,24.44
2017-07-17T12:36:07.001Z,24.45
2017-07-17T12:38:34.951Z,24.46
2017-07-17T12:41:02.884Z,24.46
2017-07-17T12:43:30.819Z,24.47
2017-07-17T12:45:58.771Z,24.48
2017-07-17T12:48:26.743Z,24.46
2017-07-17T12:50:54.684Z,24.48
2017-07-17T12:53:22.620Z,24.49
2017-07-17T12:55:50.579Z,24.48
2017-07-17T12:58:18.532Z,24.51
2017-07-17T13:00:46.518Z,24.49
2017-07-17T13:03:14.459Z,24.50
2017-07-17T13:05:42.425Z,24.52
2017-07-17T13:08:10.395Z,24.50
2017-07-17T13:10:38.344Z,24.54
2017-07-17T13:13:06.313Z,24.53
2017-07-17T13:15:34.263Z,24.53
2017-07-17T13:18:02.207Z,24.49
2017-07-17T13:20:30.185Z,24.50
2017-07-17T13:22:58.135Z,24.53
2017-07-17T13:25:26.094Z,24.52
2017-07-17T13:27:54.063Z,24.48
2017-07-17T13:30:22.057Z,24.47
2017-07-17T13:32:49.999Z,24.47
2017-07-17T13:35:17.939Z,24.44
2017-07-17T13:37:45.915Z,24.43
2017-07-17T13:40:13.860Z,24.40
2017-07-17T13:42:41.811Z,24.38
2017-07-17T13:45:09.755Z,24.41
2017-07-17T13:47:37.909Z,24.41
2017-07-17T13:50:05.887Z,24.39
2017-07-17T13:52:33.847Z,24.42
2017-07-17T13:55:01.783Z,24.44
2017-07-17T13:57:29.726Z,24.45
2017-07-17T13:59:57.663Z,24.45
2017-07-17T14:02:25.614Z,24.44
2017-07-17T14:04:53.565Z,24.45
2017-07-17T14:07:21.507Z,24.45
2017-07-17T14:09:49.438Z,24.43
2017-07-17T14:12:17.841Z,24.41
2017-07-17T14:14:45.880Z,24.43
2017-07-17T14:17:13.833Z,24.44
2017-07-17T14:19:42.029Z,24.44
2017-07-17T14:22:09.979Z,24.45
2017-07-17T14:24:37.935Z,24.45
2017-07-17T14:27:05.901Z,24.50
2017-07-17T14:29:33.859Z,24.51
2017-07-17T14:32:01.800Z,24.53
2017-07-17T14:34:29.735Z,24.55
2017-07-17T14:36:57.667Z,24.54
2017-07-17T14:39:25.634Z,24.57
2017-07-17T14:41:53.612Z,24.59
2017-07-17T14:44:21.556Z,24.62
2017-07-17T14:46:49.482Z,24.65
2017-07-17T14:49:17.411Z,24.67
2017-07-17T14:51:45.358Z,24.69
2017-07-17T14:54:13.296Z,24.71
2017-07-17T14:56:41.339Z,24.72
2017-07-17T14:59:09.444Z,24.74
2017-07-17T15:01:37.382Z,24.75
2017-07-17T15:04:05.338Z,24.80
2017-07-17T15:06:33.437Z,24.79
2017-07-17T15:09:01.886Z,24.79
2017-07-17T15:11:29.856Z,24.82
2017-07-17T15:13:57.897Z,24.84
2017-07-17T15:16:25.884Z,24.85
2017-07-17T15:18:53.903Z,24.86
2017-07-17T15:21:21.917Z,24.88
2017-07-17T15:23:49.876Z,24.89
2017-07-17T15:26:17.833Z,24.91
2017-07-17T15:28:45.840Z,24.92
2017-07-17T15:31:13.839Z,24.95
2017-07-17T15:33:41.787Z,24.95
2017-07-17T15:36:09.843Z,24.96
2017-07-17T15:38:37.800Z,24.97
2017-07-17T15:41:05.752Z,24.97
2017-07-17T15:43:33.708Z,24.94
2017-07-17T15:46:02.102Z,24.92
2017-07-17T15:48:30.036Z,24.91
2017-07-17T15:50:57.987Z,24.96
2017-07-17T15:53:25.992Z,25.04
2017-07-17T15:55:53.943Z,25.08
2017-07-17T15:58:21.899Z,25.14
2017-07-17T16:00:49.840Z,25.18
2017-07-17T16:03:17.839Z,25.22
2017-07-17T16:05:45.951Z,25.23
2017-07-17T16:08:13.905Z,25.24
2017-07-17T16:10:41.875Z,25.27
2017-07-17T16:13:09.819Z,25.29
2017-07-17T16:15:37.775Z,25.29
2017-07-17T16:18:05.716Z,25.30
2017-07-17T16:20:33.656Z,25.25
2017-07-17T16:23:02.036Z,25.14
2017-07-17T16:25:30.567Z,25.07
2017-07-17T16:27:58.851Z,25.04
2017-07-17T16:30:26.808Z,25.03
2017-07-17T16:32:54.819Z,25.01
2017-07-17T16:35:22.868Z,25.01
2017-07-17T16:37:51.219Z,25.01
2017-07-17T16:40:19.359Z,25.03
2017-07-17T16:42:47.505Z,25.02
2017-07-17T16:45:15.581Z,25.03
2017-07-17T16:47:43.900Z,25.04
2017-07-17T16:50:12.246Z,25.04
2017-07-17T16:52:40.347Z,25.04
2017-07-17T16:55:08.298Z,25.05
2017-07-17T16:57:36.267Z,25.11
2017-07-17T17:00:04.227Z,25.11
2017-07-17T17:02:32.190Z,25.08
2017-07-17T17:05:00.135Z,25.06
2017-07-17T17:07:28.096Z,25.05
2017-07-17T17:09:56.059Z,25.05
2017-07-17T17:12:24.020Z,25.03
2017-07-17T17:14:51.971Z,25.05
2017-07-17T17:17:19.923Z,25.05
2017-07-17T17:19:47.915Z,25.09
2017-07-17T17:22:15.868Z,25.08
2017-07-17T17:24:43.826Z,25.09
2017-07-17T17:27:11.774Z,25.10
2017-07-17T17:29:39.719Z,25.10
2017-07-17T17:32:07.670Z,25.06
2017-07-17T17:34:35.623Z,25.10
2017-07-17T17:37:03.599Z,25.08
2017-07-17T17:39:31.535Z,25.06
2017-07-17T17:41:59.492Z,25.05
2017-07-17T17:44:27.437Z,25.07
2017-07-17T17:46:55.451Z,25.07
2017-07-17T17:49:23.403Z,25.07
2017-07-17T17:51:51.403Z,25.05
2017-07-17T17:54:19.346Z,25.08
2017-07-17T17:56:47.320Z,25.08
2017-07-17T17:59:15.287Z,25.11
2017-07-17T18:01:43.220Z,25.18
2017-07-17T18:04:11.193Z,25.18
2017-07-17T18:06:39.164Z,25.14
2017-07-17T18:09:07.109Z,25.12
2017-07-17T18:11:35.060Z,25.16
2017-07-17T18:14:02.992Z,25.16
2017-07-17T18:16:31.033Z,25.15
2017-07-17T18:18:58.986Z,25.17
2017-07-17T18:21:26.969Z,25.08
2017-07-17T18:23:54.966Z,25.04
2017-07-17T18:26:22.928Z,25.00
2017-07-17T18:28:50.922Z,24.94
2017-07-17T18:31:18.891Z,24.91
2017-07-17T18:33:47.012Z,24.86
2017-07-17T18:36:15.031Z,24.85
2017-07-17T18:38:42.979Z,24.82
2017-07-17T18:41:10.957Z,24.78
2017-07-17T18:43:38.941Z,24.72
2017-07-17T18:46:06.898Z,24.74
2017-07-17T18:48:34.843Z,24.67
2017-07-17T18:51:02.819Z,24.68
2017-07-17T18:53:30.799Z,24.65
2017-07-17T18:55:58.737Z,24.61
2017-07-17T18:58:26.671Z,24.61
2017-07-17T19:00:54.638Z,24.60
2017-07-17T19:03:22.571Z,24.55
2017-07-17T19:05:50.564Z,24.50
2017-07-17T19:08:18.561Z,24.45
2017-07-17T19:10:46.693Z,24.42
2017-07-17T19:13:14.702Z,24.42
2017-07-17T19:15:42.715Z,24.35
2017-07-17T19:18:10.667Z,24.32
2017-07-17T19:20:38.616Z,24.31
2017-07-17T19:23:06.631Z,24.31
2017-07-17T19:25:34.593Z,24.29
2017-07-17T19:28:02.565Z,24.28
2017-07-17T19:30:30.516Z,24.27
2017-07-17T19:32:58.496Z,24.27
2017-07-17T19:35:26.474Z,24.26
2017-07-17T19:37:54.532Z,24.23
2017-07-17T19:40:22.480Z,24.21
2017-07-17T19:42:50.426Z,24.15
2017-07-17T19:45:18.403Z,24.16
2017-07-17T19:47:46.742Z,24.17
2017-07-17T19:50:14.725Z,24.19
2017-07-17T19:52:42.728Z,24.23
2017-07-17T19:55:10.671Z,24.27
2017-07-17T19:57:38.663Z,24.30
2017-07-17T20:00:06.698Z,24.33
2017-07-17T20:02:34.721Z,24.36
2017-07-17T20:05:02.700Z,24.36
2017-07-17T20:07:30.661Z,24.34
2017-07-17T20:09:58.619Z,24.33
2017-07-17T20:12:26.602Z,24.33
2017-07-17T20:14:54.635Z,24.33
2017-07-17T20:17:22.594Z,24.32
2017-07-17T20:19:50.542Z,24.32
2017-07-17T20:22:18.488Z,24.31
2017-07-17T20:24:46.466Z,24.32
2017-07-17T20:27:14.434Z,24.31
2017-07-17T20:29:42.410Z,24.31
2017-07-17T20:32:10.368Z,24.30
2017-07-17T20:34:38.328Z,24.32
2017-07-17T20:37:06.315Z,24.32
2017-07-17T20:39:34.299Z,24.32
2017-07-17T20:42:02.290Z,24.32
2017-07-17T20:44:30.310Z,24.32
2017-07-17T20:46:58.266Z,24.31
2017-07-17T20:49:26.236Z,24.32
2017-07-17T20:51:54.173Z,24.33
2017-07-17T20:54:22.111Z,24.30
2017-07-17T20:56:50.059Z,24.32
2017-07-17T20:59:18.031Z,24.32
2017-07-17T21:01:46.063Z,24.33
2017-07-17T21:04:14.054Z,24.33
2017-07-17T21:06:42.007Z,24.31
2017-07-17T21:09:09.990Z,24.33
2017-07-17T21:11:37.963Z,24.34
2017-07-17T21:14:05.940Z,24.32
2017-07-17T21:16:34.019Z,24.31
2017-07-17T21:19:01.963Z,24.31
2017-07-17T21:21:29.938Z,24.30
2017-07-17T21:23:57.951Z,24.28
2017-07-17T21:26:25.915Z,24.29
2017-07-17T21:28:53.872Z,24.29
2017-07-17T21:31:21.829Z,24.29
2017-07-17T21:33:49.763Z,24.32
2017-07-17T21:36:17.710Z,24.31
2017-07-17T21:38:45.904Z,24.27
2017-07-17T21:41:13.867Z,24.27
2017-07-17T21:43:41.832Z,24.25
2017-07-17T21:46:09.911Z,24.27
2017-07-17T21:48:37.896Z,24.30
2017-07-17T21:51:05.949Z,24.29
2017-07-17T21:53:33.976Z,24.28
2017-07-17T21:56:01.934Z,24.29
2017-07-17T21:58:29.893Z,24.28
2017-07-17T22:00:57.838Z,24.31
2017-07-17T22:03:25.818Z,24.33
2017-07-17T22:05:53.774Z,24.35
2017-07-17T22:08:21.743Z,24.36
2017-07-17T22:10:49.726Z,24.36
2017-07-17T22:13:17.680Z,24.36
2017-07-17T22:15:45.641Z,24.36
2017-07-17T22:18:13.578Z,24.36
2017-07-17T22:20:41.607Z,24.36
2017-07-17T22:23:09.549Z,24.36
2017-07-17T22:25:37.487Z,24.36
2017-07-17T22:28:05.461Z,24.36
2017-07-17T22:30:33.401Z,24.36
2017-07-17T22:33:01.460Z,24.35
2017-07-17T22:35:29.384Z,24.34
2017-07-17T22:37:57.346Z,24.34
2017-07-17T22:40:25.352Z,24.34
2017-07-17T22:42:53.298Z,24.33
2017-07-17T22:45:21.222Z,24.34
2017-07-17T22:47:49.150Z,24.34
2017-07-17T22:50:17.089Z,24.34
2017-07-17T22:52:45.038Z,24.33
2017-07-17T22:55:12.963Z,24.34
2017-07-17T22:57:41.130Z,24.34
2017-07-17T23:00:09.095Z,24.33
2017-07-17T23:02:37.032Z,24.33
2017-07-17T23:05:05.035Z,24.32
2017-07-17T23:07:32.979Z,24.32
2017-07-17T23:10:00.935Z,24.32
2017-07-17T23:12:28.879Z,24.33
2017-07-17T23:14:56.825Z,24.31
2017-07-17T23:17:24.772Z,24.31
2017-07-17T23:19:52.711Z,24.31
2017-07-17T23:22:20.654Z,24.31
2017-07-17T23:24:48.591Z,24.30
2017-07-17T23:27:16.534Z,24.30
2017-07-17T23:29:44.595Z,24.30
2017-07-17T23:32:12.545Z,24.30
2017-07-17T23:34:40.484Z,24.30
2017-07-17T23:37:08.431Z,24.28
2017-07-17T23:39:36.358Z,24.29
2017-07-17T23:42:04.291Z,24.28
2017-07-17T23:44:32.336Z,24.28
2017-07-17T23:47:00.305Z,24.27
2017-07-17T23:49:28.263Z,24.26
2017-07-17T23:51:56.196Z,24.27
2017-07-17T23:54:24.123Z,24.27
2017-07-17T23:56:52.069Z,24.26
2017-07-17T23:59:20.016Z,24.26
